Time;durP1;ratioP1;P1;durP2;ratioP2;P2;SDS_P1;SDS_P2;PMS_P1;PMS_P2;Temp;Humidity;BMP_temperature;BMP_pressure;BME280_temperature;BME280_humidity;BME280_pressure;Samples;Min_cycle;Max_cycle;Signal;HPM_P1;HPM_P2
2021/05/02 00:01:36;;;;;;;2.53;2.05;;;9.10;99.90;;;;;;4992075;28;20582;-74
2021/05/02 00:04:03;;;;;;;2.85;1.85;;;9.00;99.90;;;;;;5009466;28;20089;-74
2021/05/02 00:06:29;;;;;;;2.58;1.73;;;9.00;99.90;;;;;;5001539;28;20082;-74
2021/05/02 00:08:55;;;;;;;1.98;1.77;;;8.90;99.90;;;;;;4991505;28;20083;-74
2021/05/02 00:11:21;;;;;;;4.15;3.15;;;8.90;99.90;;;;;;4992002;28;20166;-74
2021/05/02 00:13:46;;;;;;;2.03;1.83;;;8.90;99.90;;;;;;4987483;28;20554;-75
2021/05/02 00:16:12;;;;;;;2.75;1.80;;;8.90;99.90;;;;;;4993968;28;20486;-74
2021/05/02 00:18:38;;;;;;;2.65;2.03;;;8.90;99.90;;;;;;5001477;28;20087;-74
2021/05/02 00:21:09;;;;;;;2.13;1.92;;;8.80;99.90;;;;;;4991406;28;20174;-74
2021/05/02 00:23:37;;;;;;;1.75;1.58;;;8.80;99.90;;;;;;4991881;28;20177;-74
2021/05/02 00:26:04;;;;;;;2.67;2.10;;;8.80;99.90;;;;;;4990704;28;20079;-74
2021/05/02 00:28:31;;;;;;;1.70;1.40;;;8.80;99.90;;;;;;4997398;28;20078;-74
2021/05/02 00:30:58;;;;;;;1.80;1.50;;;8.80;99.90;;;;;;4998250;28;20087;-75
2021/05/02 00:33:23;;;;;;;1.55;1.45;;;8.70;99.90;;;;;;4998571;28;20113;-74
2021/05/02 00:35:50;;;;;;;1.90;1.70;;;8.70;99.90;;;;;;4983256;28;20458;-75
2021/05/02 00:38:16;;;;;;;2.35;2.03;;;8.70;99.90;;;;;;5004996;28;20074;-74
2021/05/02 00:40:43;;;;;;;2.38;1.80;;;8.50;99.90;;;;;;4991981;28;20075;-74
2021/05/02 00:43:12;;;;;;;2.10;1.88;;;8.60;99.90;;;;;;4991747;28;20152;-75
2021/05/02 00:45:54;;;;;;;3.25;2.70;;;8.60;99.90;;;;;;4990818;28;20086;-75
2021/05/02 00:48:34;;;;;;;3.17;1.95;;;8.60;99.90;;;;;;4991124;28;20601;-74
2021/05/02 00:51:04;;;;;;;2.80;2.15;;;8.60;99.90;;;;;;4999185;28;20102;-74
2021/05/02 00:54:05;;;;;;;3.58;2.22;;;8.60;99.90;;;;;;4989499;28;20173;-74
2021/05/02 00:56:34;;;;;;;2.90;2.53;;;8.40;99.90;;;;;;4973846;28;20074;-74
2021/05/02 00:59:09;;;;;;;3.30;2.85;;;8.40;99.90;;;;;;4989997;28;20079;-75
2021/05/02 01:01:48;;;;;;;3.33;2.70;;;8.40;99.90;;;;;;4990539;28;20172;-76
2021/05/02 01:04:19;;;;;;;2.88;2.58;;;8.30;99.90;;;;;;4993521;28;20085;-75
2021/05/02 01:06:49;;;;;;;3.05;2.60;;;8.30;99.90;;;;;;4990461;28;20079;-75
2021/05/02 01:09:16;;;;;;;3.30;2.55;;;8.30;99.90;;;;;;4993827;28;20071;-76
2021/05/02 01:11:47;;;;;;;3.55;3.05;;;8.30;99.90;;;;;;5000611;28;20133;-76
2021/05/02 01:14:13;;;;;;;2.92;2.47;;;8.20;99.90;;;;;;4992263;28;20078;-76
2021/05/02 01:16:40;;;;;;;3.22;2.55;;;8.20;99.90;;;;;;5007804;28;20062;-76
2021/05/02 01:19:12;;;;;;;3.38;2.53;;;8.30;99.90;;;;;;4991138;28;20090;-76
2021/05/02 01:21:40;;;;;;;2.97;2.67;;;8.30;99.90;;;;;;4991352;28;20170;-75
2021/05/02 01:24:11;;;;;;;2.85;2.45;;;8.20;99.90;;;;;;4991069;28;20499;-76
2021/05/02 01:26:41;;;;;;;3.13;2.63;;;8.10;99.90;;;;;;4990095;28;20450;-76
2021/05/02 01:29:07;;;;;;;4.13;2.47;;;8.10;99.90;;;;;;4995041;28;20082;-76
2021/05/02 01:31:33;;;;;;;4.15;2.83;;;8.30;99.90;;;;;;4990308;28;20669;-76
2021/05/02 01:33:59;;;;;;;2.72;2.42;;;8.30;99.90;;;;;;4990601;28;20093;-76
2021/05/02 01:36:25;;;;;;;3.78;2.53;;;8.20;99.90;;;;;;4998916;28;20079;-76
2021/05/02 01:38:59;;;;;;;3.90;3.08;;;8.10;99.90;;;;;;4988298;28;20578;-76
2021/05/02 01:41:25;;;;;;;3.38;3.03;;;8.20;99.90;;;;;;4990275;28;20082;-76
2021/05/02 01:43:52;;;;;;;2.75;2.55;;;8.10;99.90;;;;;;4995982;28;20083;-77
2021/05/02 01:46:46;;;;;;;3.10;2.80;;;8.10;99.90;;;;;;4973047;28;20093;-77
2021/05/02 01:49:17;;;;;;;2.67;2.30;;;8.10;99.90;;;;;;4987256;28;20094;-76
2021/05/02 01:51:42;;;;;;;5.03;3.25;;;8.10;99.90;;;;;;4993196;28;20567;-77
2021/05/02 01:54:11;;;;;;;2.95;2.45;;;8.10;99.90;;;;;;4992247;28;20106;-76
2021/05/02 01:56:38;;;;;;;3.05;2.45;;;8.00;99.90;;;;;;4991173;28;20071;-76
2021/05/02 01:59:05;;;;;;;2.53;2.33;;;7.90;99.90;;;;;;4973679;28;20078;-76
2021/05/02 02:01:31;;;;;;;3.55;3.20;;;7.90;99.90;;;;;;4991252;28;20143;-75
2021/05/02 02:03:59;;;;;;;3.03;2.63;;;7.90;99.90;;;;;;4990422;28;20071;-76
2021/05/02 02:06:25;;;;;;;2.88;2.58;;;7.90;99.90;;;;;;4999757;28;20075;-77
2021/05/02 02:08:51;;;;;;;2.50;2.20;;;7.80;99.90;;;;;;4991617;28;20075;-75
2021/05/02 02:11:17;;;;;;;3.30;2.58;;;7.90;99.90;;;;;;4990810;28;20095;-75
2021/05/02 02:13:49;;;;;;;3.35;2.53;;;7.80;99.90;;;;;;4988683;28;20095;-78
2021/05/02 02:16:16;;;;;;;3.67;2.50;;;7.70;99.90;;;;;;4999640;28;20149;-76
2021/05/02 02:18:42;;;;;;;3.05;2.22;;;7.80;99.90;;;;;;4989859;28;20078;-75
2021/05/02 02:21:09;;;;;;;2.35;2.15;;;7.80;99.90;;;;;;4990116;28;20071;-75
2021/05/02 02:23:39;;;;;;;1.70;1.58;;;7.70;99.90;;;;;;4990473;28;20503;-75
2021/05/02 02:26:30;;;;;;;2.35;2.15;;;7.70;99.90;;;;;;4988675;28;20078;-76
2021/05/02 02:28:58;;;;;;;2.13;1.92;;;7.70;99.90;;;;;;4991190;28;20487;-75
2021/05/02 02:31:23;;;;;;;2.15;1.30;;;7.70;99.90;;;;;;4990395;28;20145;-76
2021/05/02 02:33:50;;;;;;;1.60;1.30;;;7.60;99.90;;;;;;4985572;28;20090;-76
2021/05/02 02:36:17;;;;;;;1.58;1.08;;;7.50;99.90;;;;;;4993844;28;20078;-76
2021/05/02 02:38:44;;;;;;;1.38;1.27;;;7.60;99.90;;;;;;5011716;28;20089;-76
2021/05/02 02:41:17;;;;;;;1.40;1.25;;;7.50;99.90;;;;;;4995621;28;20450;-76
2021/05/02 02:43:51;;;;;;;1.40;1.00;;;7.50;99.90;;;;;;4989514;28;20090;-76
2021/05/02 02:46:19;;;;;;;1.05;0.95;;;7.60;99.90;;;;;;4993038;28;20466;-76
2021/05/02 02:48:50;;;;;;;2.95;0.90;;;7.50;99.90;;;;;;4994922;28;20078;-75
2021/05/02 02:51:18;;;;;;;0.90;0.63;;;7.50;99.90;;;;;;4976482;28;20091;-76
2021/05/02 02:53:44;;;;;;;1.90;1.20;;;7.50;99.90;;;;;;4994348;28;20067;-76
2021/05/02 02:56:13;;;;;;;0.90;0.80;;;7.40;99.90;;;;;;4993363;28;20132;-76
2021/05/02 02:58:44;;;;;;;1.00;0.90;;;7.30;99.90;;;;;;4992372;28;20075;-76
2021/05/02 03:01:10;;;;;;;1.25;0.50;;;7.40;99.90;;;;;;4984751;28;20082;-76
2021/05/02 03:03:41;;;;;;;0.88;0.82;;;7.40;99.90;;;;;;4992353;28;20563;-75
2021/05/02 03:06:08;;;;;;;0.95;0.75;;;7.40;99.90;;;;;;4991263;28;20162;-76
2021/05/02 03:08:36;;;;;;;1.65;0.70;;;7.50;99.90;;;;;;4998310;28;20557;-75
2021/05/02 03:11:03;;;;;;;1.70;1.02;;;7.50;99.90;;;;;;4974521;28;20901;-76
2021/05/02 03:13:28;;;;;;;0.93;0.80;;;7.50;99.90;;;;;;4995824;28;20432;-77
2021/05/02 03:15:56;;;;;;;0.70;0.65;;;7.50;99.90;;;;;;4992839;28;20158;-76
2021/05/02 03:18:51;;;;;;;1.63;0.85;;;7.50;99.90;;;;;;4977861;28;20165;-76
2021/05/02 03:21:21;;;;;;;2.00;0.50;;;7.30;99.90;;;;;;4998924;28;20451;-76
2021/05/02 03:23:51;;;;;;;2.33;0.80;;;7.40;99.90;;;;;;4995179;28;20110;-76
2021/05/02 03:26:21;;;;;;;0.98;0.68;;;7.40;99.90;;;;;;4994265;28;20071;-76
2021/05/02 03:28:53;;;;;;;0.88;0.60;;;7.50;99.90;;;;;;4997327;28;20074;-76
2021/05/02 03:31:30;;;;;;;1.00;0.50;;;7.40;99.90;;;;;;4997143;28;20090;-76
2021/05/02 03:34:03;;;;;;;0.93;0.60;;;7.20;99.90;;;;;;4993798;28;20074;-76
2021/05/02 03:36:38;;;;;;;1.65;0.50;;;7.20;99.90;;;;;;4992410;28;20071;-76
2021/05/02 03:39:05;;;;;;;1.63;0.40;;;7.20;99.90;;;;;;4994206;28;20067;-76
2021/05/02 03:41:34;;;;;;;0.40;0.35;;;7.10;99.90;;;;;;4992656;28;20070;-76
2021/05/02 03:43:59;;;;;;;0.40;0.30;;;7.10;99.90;;;;;;4975953;28;20543;-76
2021/05/02 03:46:25;;;;;;;0.55;0.43;;;7.10;99.90;;;;;;4991570;28;20077;-76
2021/05/02 03:48:57;;;;;;;0.50;0.35;;;7.10;99.90;;;;;;4992813;28;20163;-76
2021/05/02 03:51:24;;;;;;;1.50;0.82;;;7.00;99.90;;;;;;4996201;28;20093;-75
2021/05/02 03:53:50;;;;;;;0.30;0.30;;;6.90;99.90;;;;;;5001466;28;20070;-75
2021/05/02 03:56:48;;;;;;;0.55;0.50;;;6.90;99.90;;;;;;4997425;28;20086;-76
2021/05/02 03:59:13;;;;;;;0.40;0.40;;;6.90;99.90;;;;;;4953148;28;20126;-76
2021/05/02 04:01:47;;;;;;;0.70;0.60;;;7.00;99.90;;;;;;4993296;28;20102;-77
2021/05/02 04:04:14;;;;;;;0.65;0.50;;;6.80;99.90;;;;;;4994354;28;20083;-76
2021/05/02 04:06:40;;;;;;;0.55;0.43;;;6.80;99.90;;;;;;4993718;28;20121;-76
2021/05/02 04:09:11;;;;;;;0.65;0.38;;;6.90;99.90;;;;;;4999943;28;20614;-76
2021/05/02 04:11:38;;;;;;;0.60;0.40;;;6.80;99.90;;;;;;4991363;28;20454;-76
2021/05/02 04:14:08;;;;;;;0.30;0.25;;;6.50;99.90;;;;;;4991012;28;20102;-76
2021/05/02 04:16:33;;;;;;;0.88;0.38;;;6.50;99.90;;;;;;4992333;28;20079;-76
2021/05/02 04:19:04;;;;;;;0.30;0.30;;;6.50;99.90;;;;;;4991722;28;20082;-75
2021/05/02 04:21:30;;;;;;;0.30;0.20;;;6.50;99.90;;;;;;4988662;28;20161;-76
2021/05/02 04:23:56;;;;;;;0.63;0.30;;;6.60;99.90;;;;;;4988305;28;20075;-75
2021/05/02 04:26:22;;;;;;;0.20;0.20;;;6.60;99.90;;;;;;4989465;28;20098;-75
2021/05/02 04:28:48;;;;;;;0.40;0.32;;;6.60;99.90;;;;;;4972661;28;20078;-75
2021/05/02 04:31:13;;;;;;;0.82;0.73;;;6.60;99.90;;;;;;4990079;28;20087;-76
2021/05/02 04:33:39;;;;;;;0.28;0.20;;;6.60;99.90;;;;;;4989875;28;20125;-76
2021/05/02 04:36:05;;;;;;;0.30;0.30;;;6.70;99.90;;;;;;4988934;28;20195;-76
2021/05/02 04:38:31;;;;;;;0.65;0.40;;;6.60;99.90;;;;;;4990781;28;20086;-75
2021/05/02 04:40:57;;;;;;;0.73;0.40;;;6.70;99.90;;;;;;4989970;28;20138;-75
2021/05/02 04:43:23;;;;;;;0.20;0.15;;;6.60;99.90;;;;;;4972744;28;20098;-75
2021/05/02 04:45:48;;;;;;;0.60;0.50;;;6.70;99.90;;;;;;4988844;28;20098;-75
2021/05/02 04:48:14;;;;;;;1.05;0.43;;;6.70;99.90;;;;;;4988541;28;20079;-75
2021/05/02 04:50:40;;;;;;;0.30;0.30;;;6.70;99.90;;;;;;4988704;28;20531;-75
2021/05/02 04:53:05;;;;;;;0.90;0.45;;;6.70;99.90;;;;;;4993141;28;20408;-75
2021/05/02 04:55:31;;;;;;;0.85;0.65;;;6.60;99.90;;;;;;4973933;28;20083;-77
2021/05/02 04:57:58;;;;;;;0.68;0.50;;;6.60;99.90;;;;;;4989534;28;20175;-76
2021/05/02 05:00:24;;;;;;;0.73;0.57;;;6.70;99.90;;;;;;4991255;28;20099;-75
2021/05/02 05:02:51;;;;;;;0.95;0.82;;;6.50;99.90;;;;;;4988215;28;20083;-75
2021/05/02 05:05:17;;;;;;;1.60;1.10;;;6.50;99.90;;;;;;4989272;28;20153;-75
2021/05/02 05:07:42;;;;;;;1.40;0.93;;;6.50;99.90;;;;;;4988929;28;20155;-75
2021/05/02 05:10:09;;;;;;;3.38;1.38;;;6.40;99.90;;;;;;4991889;28;20106;-76
2021/05/02 05:12:37;;;;;;;1.67;1.58;;;6.40;99.90;;;;;;4990803;28;20571;-75
2021/05/02 05:15:04;;;;;;;1.83;1.40;;;6.40;99.90;;;;;;4990826;28;20071;-75
2021/05/02 05:17:30;;;;;;;2.08;1.50;;;6.50;99.90;;;;;;4990192;28;20074;-75
2021/05/02 05:19:55;;;;;;;2.25;1.88;;;6.50;99.90;;;;;;4988200;28;20443;-75
2021/05/02 05:22:21;;;;;;;1.98;1.50;;;6.40;99.90;;;;;;4972623;28;20129;-75
2021/05/02 05:24:47;;;;;;;2.35;2.03;;;6.40;99.90;;;;;;4988287;28;20166;-75
2021/05/02 05:27:12;;;;;;;2.47;1.80;;;6.30;99.90;;;;;;4988111;28;20082;-75
2021/05/02 05:29:38;;;;;;;2.88;2.00;;;6.40;99.90;;;;;;4990136;28;20481;-75
2021/05/02 05:32:04;;;;;;;1.98;1.80;;;6.30;99.90;;;;;;4989868;28;20106;-75
2021/05/02 05:34:31;;;;;;;2.35;1.88;;;6.40;99.90;;;;;;4990953;28;20089;-76
2021/05/02 05:36:57;;;;;;;2.63;1.60;;;6.30;99.90;;;;;;4988643;28;20559;-75
2021/05/02 05:39:22;;;;;;;2.15;1.63;;;6.50;99.90;;;;;;4989448;28;20501;-75
2021/05/02 05:41:48;;;;;;;1.85;1.70;;;6.40;99.90;;;;;;4971353;28;20094;-76
2021/05/02 05:44:14;;;;;;;2.28;1.83;;;6.40;99.90;;;;;;4994433;28;20087;-75
2021/05/02 05:46:39;;;;;;;2.50;1.88;;;6.30;99.90;;;;;;4970225;28;20078;-76
2021/05/02 05:49:05;;;;;;;2.40;1.92;;;6.20;99.90;;;;;;4989394;28;20082;-75
2021/05/02 05:51:30;;;;;;;2.10;1.80;;;6.20;99.90;;;;;;4988511;28;20145;-75
2021/05/02 05:53:56;;;;;;;1.60;1.42;;;6.30;99.90;;;;;;4988092;28;20089;-75
2021/05/02 05:56:21;;;;;;;1.95;1.60;;;6.20;99.90;;;;;;4993363;28;20565;-76
2021/05/02 05:58:47;;;;;;;2.33;1.67;;;6.30;99.90;;;;;;4987710;28;20081;-76
2021/05/02 06:01:13;;;;;;;2.25;1.70;;;6.40;99.90;;;;;;4987097;28;20082;-76
2021/05/02 06:03:38;;;;;;;2.38;1.80;;;6.40;99.90;;;;;;4990221;28;20108;-76
2021/05/02 06:06:04;;;;;;;1.33;1.23;;;6.30;99.90;;;;;;4984372;28;21319;-74
2021/05/02 06:08:30;;;;;;;2.22;1.38;;;6.40;99.90;;;;;;4986178;28;20090;-76
2021/05/02 06:10:55;;;;;;;1.63;1.40;;;6.40;99.90;;;;;;4991768;28;20141;-76
2021/05/02 06:13:21;;;;;;;1.80;1.30;;;6.30;99.90;;;;;;4994278;28;20102;-76
2021/05/02 06:15:46;;;;;;;1.30;1.02;;;6.30;99.90;;;;;;4988187;28;20086;-75
2021/05/02 06:18:12;;;;;;;1.90;1.55;;;6.10;99.90;;;;;;4988245;28;20526;-75
2021/05/02 06:20:38;;;;;;;1.52;1.27;;;6.20;99.90;;;;;;4991389;28;20075;-75
2021/05/02 06:23:04;;;;;;;1.73;1.23;;;6.20;99.90;;;;;;4989618;28;20123;-76
2021/05/02 06:25:29;;;;;;;1.88;1.60;;;6.30;99.90;;;;;;4991399;28;20085;-75
2021/05/02 06:27:56;;;;;;;1.70;1.60;;;6.30;99.90;;;;;;4998462;28;20114;-76
2021/05/02 06:30:23;;;;;;;2.08;1.73;;;6.30;99.90;;;;;;4988428;28;20078;-75
2021/05/02 06:32:49;;;;;;;1.60;1.38;;;6.40;99.90;;;;;;4995996;28;20307;-75
2021/05/02 06:35:15;;;;;;;2.38;1.65;;;6.40;99.90;;;;;;4989331;28;20527;-75
2021/05/02 06:37:40;;;;;;;1.75;1.50;;;6.20;99.90;;;;;;4987662;28;20070;-75
2021/05/02 06:40:06;;;;;;;2.20;1.85;;;6.10;99.90;;;;;;4987764;28;20495;-75
2021/05/02 06:42:32;;;;;;;1.60;1.50;;;6.10;99.90;;;;;;4996627;28;20109;-75
2021/05/02 06:44:58;;;;;;;1.63;1.40;;;5.90;99.90;;;;;;4989186;28;20078;-75
2021/05/02 06:47:24;;;;;;;2.00;1.70;;;6.10;99.90;;;;;;4997552;28;20078;-75
2021/05/02 06:49:49;;;;;;;2.00;1.60;;;6.00;99.90;;;;;;4987052;28;20083;-75
2021/05/02 06:52:16;;;;;;;3.35;1.65;;;6.00;99.90;;;;;;4975804;28;20103;-76
2021/05/02 06:54:42;;;;;;;2.97;2.13;;;6.10;99.90;;;;;;4972916;28;20079;-75
2021/05/02 06:57:08;;;;;;;2.08;1.60;;;6.20;99.90;;;;;;4992474;28;20075;-75
2021/05/02 06:59:33;;;;;;;2.08;1.80;;;6.20;99.90;;;;;;4988111;28;20079;-76
2021/05/02 07:01:59;;;;;;;2.42;2.22;;;6.10;99.90;;;;;;4997766;28;20113;-76
2021/05/02 07:04:26;;;;;;;1.75;1.50;;;6.00;99.90;;;;;;4993920;28;20079;-76
2021/05/02 07:06:51;;;;;;;3.13;1.90;;;5.90;99.90;;;;;;4979711;28;20109;-76
2021/05/02 07:09:17;;;;;;;3.20;2.42;;;6.20;99.90;;;;;;4988966;28;20110;-75
2021/05/02 07:11:42;;;;;;;2.45;2.15;;;6.20;99.90;;;;;;4990044;28;20091;-76
2021/05/02 07:14:08;;;;;;;2.10;1.77;;;6.00;99.90;;;;;;4989364;28;20140;-75
2021/05/02 07:16:33;;;;;;;2.63;2.10;;;6.00;99.90;;;;;;4988629;28;20082;-76
2021/05/02 07:18:59;;;;;;;2.15;1.85;;;6.20;99.90;;;;;;4991384;28;20087;-76
2021/05/02 07:21:25;;;;;;;2.83;2.22;;;6.20;99.90;;;;;;4980279;28;20136;-76
2021/05/02 07:23:52;;;;;;;2.00;1.80;;;6.20;99.90;;;;;;4974617;28;20128;-76
2021/05/02 07:26:20;;;;;;;2.53;2.30;;;6.20;99.90;;;;;;4992381;28;20085;-76
2021/05/02 07:28:46;;;;;;;3.28;2.97;;;6.40;99.90;;;;;;4989188;28;20083;-76
2021/05/02 07:31:12;;;;;;;3.03;2.35;;;6.30;99.90;;;;;;4997821;28;20102;-76
2021/05/02 07:33:39;;;;;;;3.78;2.70;;;6.40;99.90;;;;;;4986039;28;20176;-75
2021/05/02 07:36:05;;;;;;;2.95;2.25;;;6.40;99.90;;;;;;4990493;28;20090;-75
2021/05/02 07:38:31;;;;;;;2.65;2.05;;;6.40;99.90;;;;;;4992619;28;20604;-76
2021/05/02 07:40:57;;;;;;;3.10;2.63;;;6.60;99.90;;;;;;4997505;28;20165;-76
2021/05/02 07:43:23;;;;;;;3.45;2.83;;;6.60;99.90;;;;;;5000710;28;20122;-76
2021/05/02 07:45:50;;;;;;;3.08;2.47;;;6.50;99.90;;;;;;4992581;28;20153;-75
2021/05/02 07:48:15;;;;;;;3.35;2.80;;;6.50;99.90;;;;;;4986999;28;20090;-76
2021/05/02 07:50:41;;;;;;;4.25;3.53;;;6.40;99.90;;;;;;4992747;28;20082;-75
2021/05/02 07:53:07;;;;;;;3.97;3.20;;;6.40;99.90;;;;;;4970609;28;20091;-75
2021/05/02 07:55:33;;;;;;;4.28;3.80;;;6.50;99.90;;;;;;5000346;28;20094;-76
2021/05/02 07:57:59;;;;;;;3.92;3.25;;;6.50;99.90;;;;;;5003813;28;20094;-75
2021/05/02 08:00:25;;;;;;;3.08;2.40;;;6.60;99.90;;;;;;5001942;28;20067;-75
2021/05/02 08:02:50;;;;;;;3.78;3.20;;;6.50;99.90;;;;;;4993738;28;20682;-76
2021/05/02 08:05:16;;;;;;;3.95;3.25;;;6.50;99.90;;;;;;4998605;28;20527;-75
2021/05/02 08:07:43;;;;;;;3.97;3.33;;;6.70;99.90;;;;;;4976342;28;20082;-75
2021/05/02 08:10:09;;;;;;;3.95;2.90;;;6.70;99.90;;;;;;4985453;28;20158;-76
2021/05/02 08:12:35;;;;;;;5.28;3.35;;;6.80;99.90;;;;;;4992600;28;20109;-74
2021/05/02 08:15:01;;;;;;;4.57;3.50;;;6.80;99.90;;;;;;4991587;28;20098;-74
2021/05/02 08:17:26;;;;;;;4.10;3.42;;;6.80;99.90;;;;;;4994458;28;20066;-74
2021/05/02 08:19:52;;;;;;;4.35;3.25;;;6.80;99.90;;;;;;4991535;28;20846;-76
2021/05/02 08:22:19;;;;;;;3.95;3.50;;;6.90;99.90;;;;;;4990417;28;20091;-74
2021/05/02 08:24:45;;;;;;;4.30;3.58;;;6.80;99.90;;;;;;4989835;28;20086;-76
2021/05/02 08:27:11;;;;;;;4.72;3.72;;;6.80;99.90;;;;;;4989250;28;20079;-76
2021/05/02 08:29:37;;;;;;;3.50;3.20;;;6.80;99.90;;;;;;4993995;28;20522;-77
2021/05/02 08:32:03;;;;;;;5.18;3.88;;;6.70;99.90;;;;;;4999655;28;20137;-75
2021/05/02 08:34:28;;;;;;;3.83;3.33;;;6.60;99.90;;;;;;4998997;28;20078;-76
2021/05/02 08:36:54;;;;;;;8.30;6.60;;;6.60;99.90;;;;;;4983803;28;20067;-79
2021/05/02 08:39:20;;;;;;;4.50;3.97;;;6.70;99.90;;;;;;4981891;28;20090;-76
2021/05/02 08:41:45;;;;;;;5.85;4.22;;;6.70;99.90;;;;;;4993654;28;20606;-75
2021/05/02 08:44:12;;;;;;;6.97;5.63;;;6.70;99.90;;;;;;4990841;28;20089;-79
2021/05/02 08:46:37;;;;;;;5.65;5.07;;;6.70;99.90;;;;;;4994117;28;20762;-76
2021/05/02 08:49:06;;;;;;;6.45;4.65;;;6.70;99.90;;;;;;4979594;28;20083;-81
2021/05/02 08:51:32;;;;;;;7.75;6.38;;;6.70;99.90;;;;;;4975351;28;20098;-77
2021/05/02 08:53:58;;;;;;;6.22;5.22;;;6.70;99.90;;;;;;4976737;28;20075;-76
2021/05/02 08:56:24;;;;;;;6.57;5.45;;;6.80;99.90;;;;;;4999911;28;20078;-79
2021/05/02 08:58:50;;;;;;;5.30;4.57;;;6.80;99.90;;;;;;4995107;28;20111;-77
2021/05/02 09:01:28;;;;;;;5.55;4.93;;;6.80;99.90;;;;;;4978737;28;20630;-75
2021/05/02 09:03:54;;;;;;;7.22;4.68;;;6.80;99.90;;;;;;4992515;28;20114;-81
2021/05/02 09:06:23;;;;;;;5.82;5.22;;;6.80;99.90;;;;;;4993504;28;20101;-79
2021/05/02 09:08:51;;;;;;;6.55;5.60;;;6.70;99.90;;;;;;5007283;28;20074;-81
2021/05/02 09:11:28;;;;;;;6.68;5.68;;;6.70;99.90;;;;;;4982109;28;20526;-78
2021/05/02 09:13:55;;;;;;;7.43;5.68;;;6.70;99.90;;;;;;4979786;28;20710;-78
2021/05/02 09:16:20;;;;;;;7.00;6.10;;;6.60;99.90;;;;;;4993268;28;20158;-78
2021/05/02 09:18:49;;;;;;;7.85;6.20;;;6.60;99.90;;;;;;4995030;28;20583;-76
2021/05/02 09:21:27;;;;;;;6.07;5.47;;;6.70;99.90;;;;;;4990695;28;20593;-76
2021/05/02 09:23:54;;;;;;;7.57;6.60;;;6.70;99.90;;;;;;4964618;28;20083;-77
2021/05/02 09:26:28;;;;;;;8.43;6.85;;;6.70;99.90;;;;;;4987804;28;20548;-77
2021/05/02 09:28:56;;;;;;;8.95;7.45;;;6.70;99.90;;;;;;4991293;28;20597;-79
2021/05/02 09:31:25;;;;;;;7.63;6.55;;;6.70;99.90;;;;;;4996056;28;20496;-77
2021/05/02 09:33:52;;;;;;;8.68;7.47;;;6.70;99.90;;;;;;5003190;28;20066;-76
2021/05/02 09:36:20;;;;;;;8.57;6.97;;;6.70;99.90;;;;;;4992691;28;20116;-76
2021/05/02 09:38:47;;;;;;;7.50;6.57;;;6.60;99.90;;;;;;5000995;28;20097;-77
2021/05/02 09:41:13;;;;;;;8.70;6.85;;;6.70;99.90;;;;;;4999687;28;20177;-75
2021/05/02 09:43:44;;;;;;;9.32;7.05;;;6.70;99.90;;;;;;4972165;28;20100;-75
2021/05/02 09:46:30;;;;;;;8.20;6.30;;;6.80;99.90;;;;;;4989987;28;20086;-75
2021/05/02 09:49:09;;;;;;;7.88;7.03;;;6.70;99.90;;;;;;4983299;28;20082;-74
2021/05/02 09:51:37;;;;;;;8.82;6.93;;;6.80;99.90;;;;;;5002862;28;20090;-75
2021/05/02 09:54:05;;;;;;;9.70;7.85;;;6.80;99.90;;;;;;4972776;28;20539;-76
2021/05/02 09:56:52;;;;;;;9.02;7.88;;;6.90;99.90;;;;;;4994185;28;20102;-76
2021/05/02 09:59:31;;;;;;;10.07;8.00;;;7.00;99.90;;;;;;4987603;28;20074;-75
2021/05/02 10:02:02;;;;;;;10.10;8.50;;;7.00;99.90;;;;;;4996332;28;20174;-75
2021/05/02 10:04:31;;;;;;;9.27;7.85;;;7.10;99.90;;;;;;4985264;28;20638;-76
2021/05/02 10:06:59;;;;;;;8.50;7.63;;;7.10;99.90;;;;;;4969595;28;20090;-77
2021/05/02 10:09:24;;;;;;;16.10;12.50;;;7.00;99.90;;;;;;4975651;28;20083;-79
2021/05/02 10:11:53;;;;;;;9.73;7.80;;;7.10;99.90;;;;;;4988794;28;20844;-79
2021/05/02 10:14:18;;;;;;;9.57;8.20;;;7.10;99.90;;;;;;4991885;28;20102;-77
2021/05/02 10:16:45;;;;;;;8.57;7.68;;;7.10;99.90;;;;;;4996235;28;20407;-77
2021/05/02 10:19:11;;;;;;;10.00;9.00;;;7.10;99.90;;;;;;5000251;28;20133;-77
2021/05/02 10:21:37;;;;;;;9.52;8.50;;;7.00;99.90;;;;;;4996204;28;20091;-78
2021/05/02 10:24:05;;;;;;;8.93;8.02;;;7.10;99.90;;;;;;4974242;28;20089;-76
2021/05/02 10:26:30;;;;;;;10.60;9.05;;;7.10;99.90;;;;;;4988373;28;20083;-79
2021/05/02 10:28:56;;;;;;;9.43;8.35;;;7.10;99.90;;;;;;4990449;28;20554;-77
2021/05/02 10:31:30;;;;;;;9.13;8.10;;;7.20;99.90;;;;;;4987921;28;20102;-76
2021/05/02 10:33:56;;;;;;;10.50;9.05;;;7.30;99.90;;;;;;4980271;28;20535;-80
2021/05/02 10:36:24;;;;;;;9.02;8.13;;;7.30;99.90;;;;;;4984315;28;20094;-78
2021/05/02 10:38:49;;;;;;;9.38;8.38;;;7.30;99.90;;;;;;4993421;28;20082;-76
2021/05/02 10:41:23;;;;;;;10.15;8.68;;;7.30;99.90;;;;;;4989175;28;20083;-76
2021/05/02 10:43:49;;;;;;;11.05;8.20;;;7.20;99.90;;;;;;4985875;28;20085;-82
2021/05/02 10:46:41;;;;;;;9.20;8.02;;;7.10;99.90;;;;;;4987133;28;20075;-76
2021/05/02 10:49:06;;;;;;;10.60;9.50;;;7.20;99.90;;;;;;4981135;28;20094;-75
2021/05/02 10:51:34;;;;;;;10.88;8.32;;;7.30;99.90;;;;;;4988035;28;20090;-74
2021/05/02 10:54:06;;;;;;;10.73;9.52;;;7.30;99.90;;;;;;4987911;28;20079;-75
2021/05/02 10:56:57;;;;;;;10.93;8.88;;;7.40;99.90;;;;;;4987485;28;20083;-75
2021/05/02 10:59:47;;;;;;;12.45;9.85;;;7.40;99.90;;;;;;4992457;28;20182;-75
2021/05/02 11:02:34;;;;;;;11.13;9.57;;;7.50;99.90;;;;;;4998971;28;20218;-76
2021/05/02 11:05:03;;;;;;;10.43;9.32;;;7.50;99.90;;;;;;4987440;28;20079;-77
2021/05/02 11:07:34;;;;;;;10.55;8.55;;;7.50;99.90;;;;;;4997439;28;20079;-76
2021/05/02 11:10:00;;;;;;;9.65;8.65;;;7.60;99.90;;;;;;4994300;28;20086;-76
2021/05/02 11:12:27;;;;;;;9.82;8.82;;;7.60;99.90;;;;;;4976180;28;20094;-76
2021/05/02 11:14:53;;;;;;;9.40;8.50;;;7.70;99.90;;;;;;4978505;28;20787;-74
2021/05/02 11:17:19;;;;;;;10.45;9.35;;;7.80;99.90;;;;;;5005675;28;20077;-80
2021/05/02 11:19:46;;;;;;;9.77;8.75;;;7.70;99.90;;;;;;4998347;28;20079;-76
2021/05/02 11:22:14;;;;;;;10.15;8.35;;;7.70;99.90;;;;;;4976569;28;20116;-78
2021/05/02 11:24:43;;;;;;;10.95;9.85;;;7.60;99.90;;;;;;4983062;28;20925;-78
2021/05/02 11:27:18;;;;;;;10.80;9.60;;;7.50;99.90;;;;;;4991898;28;20091;-78
2021/05/02 11:29:54;;;;;;;11.57;9.60;;;7.50;99.90;;;;;;4994370;28;20071;-78
2021/05/02 11:32:26;;;;;;;9.77;8.80;;;7.50;99.90;;;;;;4997881;28;20098;-78
2021/05/02 11:34:55;;;;;;;12.57;10.38;;;7.40;99.90;;;;;;4983731;28;20157;-78
2021/05/02 11:37:53;;;;;;;12.25;10.93;;;7.40;99.90;;;;;;4999318;28;20150;-76
2021/05/02 11:40:21;;;;;;;15.57;12.15;;;7.60;99.90;;;;;;4991316;28;20077;-78
2021/05/02 11:43:00;;;;;;;13.23;10.95;;;7.70;99.90;;;;;;5007180;28;20188;-75
2021/05/02 11:45:49;;;;;;;12.23;10.95;;;7.70;99.90;;;;;;4992185;28;20075;-77
2021/05/02 11:48:28;;;;;;;13.48;11.05;;;7.80;99.90;;;;;;4980379;28;20408;-77
2021/05/02 11:51:15;;;;;;;11.85;10.20;;;7.70;99.90;;;;;;4991114;28;20085;-76
2021/05/02 11:53:44;;;;;;;18.42;12.65;;;7.70;99.90;;;;;;4990885;28;20114;-78
2021/05/02 11:56:13;;;;;;;12.60;11.30;;;7.70;99.90;;;;;;4991548;28;20075;-75
2021/05/02 11:58:40;;;;;;;13.15;11.65;;;7.70;99.90;;;;;;4991791;28;20079;-76
2021/05/02 12:01:12;;;;;;;15.05;11.38;;;7.60;99.90;;;;;;4990393;28;20162;-78
2021/05/02 12:03:39;;;;;;;13.25;11.43;;;7.50;99.90;;;;;;4990077;28;20673;-78
2021/05/02 12:06:07;;;;;;;12.02;10.73;;;7.50;99.90;;;;;;4992811;28;20585;-78
2021/05/02 12:08:33;;;;;;;11.57;9.85;;;7.60;99.90;;;;;;4990962;28;20574;-78
2021/05/02 12:11:01;;;;;;;12.52;10.52;;;7.50;99.90;;;;;;4990916;28;20090;-77
2021/05/02 12:13:40;;;;;;;11.93;9.70;;;7.50;99.90;;;;;;4990995;28;20118;-78
2021/05/02 12:16:08;;;;;;;12.88;11.27;;;7.50;99.90;;;;;;4994568;28;20079;-75
2021/05/02 12:18:54;;;;;;;12.85;11.15;;;7.60;99.90;;;;;;4992646;28;20111;-77
2021/05/02 12:21:33;;;;;;;11.50;10.27;;;7.60;99.90;;;;;;4974924;28;20082;-78
2021/05/02 12:24:09;;;;;;;12.43;10.68;;;7.60;99.90;;;;;;4984698;28;20150;-76
2021/05/02 12:26:37;;;;;;;13.02;10.80;;;7.70;99.90;;;;;;4990045;28;20073;-74
2021/05/02 12:29:06;;;;;;;13.30;10.98;;;7.80;99.90;;;;;;4973490;28;20162;-76
2021/05/02 12:31:34;;;;;;;13.23;10.30;;;8.00;99.90;;;;;;4988480;28;20123;-75
2021/05/02 12:34:00;;;;;;;12.65;10.02;;;8.20;99.90;;;;;;4997544;28;20092;-80
2021/05/02 12:36:30;;;;;;;10.98;9.65;;;8.50;99.90;;;;;;5004152;28;20157;-79
2021/05/02 12:39:01;;;;;;;9.80;8.77;;;8.60;99.90;;;;;;4991822;28;20376;-81
2021/05/02 12:41:27;;;;;;;10.02;8.82;;;8.60;99.90;;;;;;4993028;28;20075;-78
2021/05/02 12:43:52;;;;;;;15.15;10.55;;;8.80;99.90;;;;;;4996405;28;20144;-74
2021/05/02 12:46:38;;;;;;;12.07;10.40;;;8.80;99.90;;;;;;4989643;28;20078;-80
2021/05/02 12:49:12;;;;;;;11.43;10.05;;;8.60;99.90;;;;;;4991706;28;20126;-75
2021/05/02 12:51:37;;;;;;;11.93;10.48;;;8.60;99.90;;;;;;4990764;28;20447;-75
2021/05/02 12:54:11;;;;;;;14.63;10.70;;;8.40;99.90;;;;;;4994411;28;20092;-75
2021/05/02 12:56:39;;;;;;;13.23;11.15;;;8.50;99.90;;;;;;4988916;28;20466;-73
2021/05/02 12:59:30;;;;;;;14.63;11.32;;;8.30;99.90;;;;;;4989358;28;20078;-73
2021/05/02 13:02:08;;;;;;;15.70;12.02;;;8.30;99.90;;;;;;4985408;28;20099;-77
2021/05/02 13:05:11;;;;;;;15.93;13.45;;;8.10;99.90;;;;;;4983551;28;20106;-77